createdAt,value
2018-12-16T00:02:12.478Z,53.50
2018-12-16T00:04:42.521Z,47.00
2018-12-16T00:07:13.262Z,47.10
2018-12-16T00:09:41.681Z,45.67
2018-12-16T00:12:10.048Z,52.73
2018-12-16T00:14:38.447Z,55.23
2018-12-16T00:17:06.971Z,50.00
2018-12-16T00:19:35.402Z,47.90
2018-12-16T00:22:03.960Z,51.50
2018-12-16T00:24:32.493Z,48.00
2018-12-16T00:27:12.594Z,49.77
2018-12-16T00:29:41.191Z,52.73
2018-12-16T00:32:09.562Z,49.47
2018-12-16T00:34:38.024Z,55.50
2018-12-16T00:37:06.566Z,52.73
2018-12-16T00:39:35.047Z,56.20
2018-12-16T00:42:03.554Z,57.93
2018-12-16T00:44:31.967Z,58.13
2018-12-16T00:47:00.538Z,61.83
2018-12-16T00:49:28.991Z,57.93
2018-12-16T00:51:57.329Z,49.90
2018-12-16T00:54:25.803Z,61.33
2018-12-16T00:56:54.246Z,56.50
2018-12-16T00:59:22.635Z,54.13
2018-12-16T01:01:51.081Z,58.53
2018-12-16T01:04:19.453Z,61.83
2018-12-16T01:06:47.779Z,55.10
2018-12-16T01:09:16.156Z,56.00
2018-12-16T01:11:44.556Z,63.27
2018-12-16T01:14:12.948Z,56.03
2018-12-16T01:16:41.249Z,52.77
2018-12-16T01:19:09.636Z,55.50
2018-12-16T01:21:38.031Z,58.67
2018-12-16T01:24:06.297Z,56.33
2018-12-16T01:26:35.571Z,60.30
2018-12-16T01:29:04.027Z,62.27
2018-12-16T01:31:32.432Z,54.83
2018-12-16T01:34:00.898Z,60.87
2018-12-16T01:36:29.225Z,66.97
2018-12-16T01:38:57.558Z,62.37
2018-12-16T01:41:26.017Z,59.00
2018-12-16T01:43:54.370Z,59.77
2018-12-16T01:46:22.733Z,64.30
2018-12-16T01:48:51.259Z,60.87
2018-12-16T01:51:19.650Z,57.13
2018-12-16T01:53:48.051Z,61.40
2018-12-16T01:56:16.383Z,58.70
2018-12-16T01:58:44.761Z,60.17
2018-12-16T02:01:13.475Z,64.23
2018-12-16T02:03:42.227Z,63.83
2018-12-16T02:06:11.060Z,59.50
2018-12-16T02:08:39.675Z,63.77
2018-12-16T02:11:08.046Z,66.93
2018-12-16T02:13:36.703Z,68.03
2018-12-16T02:16:05.186Z,63.00
2018-12-16T02:18:33.665Z,67.80
2018-12-16T02:21:02.493Z,65.47
2018-12-16T02:23:31.512Z,66.03
2018-12-16T02:25:59.846Z,68.50
2018-12-16T02:28:28.199Z,66.87
2018-12-16T02:30:56.596Z,64.20
2018-12-16T02:33:25.135Z,58.67
2018-12-16T02:35:53.535Z,72.70
2018-12-16T02:38:21.869Z,63.43
2018-12-16T02:40:50.171Z,70.23
2018-12-16T02:43:18.572Z,63.83
2018-12-16T02:45:47.005Z,62.60
2018-12-16T02:48:15.379Z,62.63
2018-12-16T02:50:43.738Z,63.37
2018-12-16T02:53:12.575Z,66.80
2018-12-16T02:55:41.220Z,64.50
2018-12-16T02:58:09.443Z,70.87
2018-12-16T03:00:37.896Z,64.93
2018-12-16T03:03:06.135Z,68.43
2018-12-16T03:05:35.154Z,68.43
2018-12-16T03:08:03.374Z,61.30
2018-12-16T03:10:31.995Z,75.30
2018-12-16T03:13:00.237Z,69.07
2018-12-16T03:15:28.496Z,67.07
2018-12-16T03:17:56.759Z,71.90
2018-12-16T03:20:25.053Z,72.07
2018-12-16T03:22:53.973Z,67.43
2018-12-16T03:25:22.265Z,75.27
2018-12-16T03:27:51.257Z,69.47
2018-12-16T03:30:19.592Z,66.07
2018-12-16T03:32:48.606Z,60.57
2018-12-16T03:35:16.860Z,71.50
2018-12-16T03:37:45.609Z,72.30
2018-12-16T03:40:14.025Z,65.23
2018-12-16T03:42:42.237Z,72.10
2018-12-16T03:45:10.466Z,71.83
2018-12-16T03:47:40.490Z,65.47
2018-12-16T03:50:22.103Z,68.33
2018-12-16T03:52:50.500Z,67.90
2018-12-16T03:55:18.829Z,72.20
2018-12-16T03:57:47.178Z,68.27
2018-12-16T04:00:15.355Z,77.60
2018-12-16T04:02:43.756Z,76.07
2018-12-16T04:05:12.063Z,76.63
2018-12-16T04:07:40.349Z,68.13
2018-12-16T04:10:09.432Z,68.97
2018-12-16T04:12:39.241Z,77.90
2018-12-16T04:15:07.970Z,74.10
2018-12-16T04:17:36.218Z,68.50
2018-12-16T04:20:05.099Z,76.20
2018-12-16T04:22:33.483Z,82.10
2018-12-16T04:25:01.708Z,81.70
2018-12-16T04:27:30.125Z,82.80
2018-12-16T04:29:58.337Z,84.60
2018-12-16T04:32:29.406Z,71.93
2018-12-16T04:34:57.642Z,77.77
2018-12-16T04:37:25.965Z,83.57
2018-12-16T04:39:56.500Z,84.70
2018-12-16T04:42:25.353Z,82.60
2018-12-16T04:44:53.815Z,84.97
2018-12-16T04:47:22.479Z,79.53
2018-12-16T04:49:50.733Z,76.60
2018-12-16T04:52:19.042Z,88.63
2018-12-16T04:54:47.387Z,81.37
2018-12-16T04:57:15.616Z,80.60
2018-12-16T04:59:43.914Z,83.67
2018-12-16T05:02:12.596Z,80.53
2018-12-16T05:04:41.332Z,86.13
2018-12-16T05:07:09.581Z,83.10
2018-12-16T05:09:38.305Z,80.37
2018-12-16T05:12:06.554Z,86.23
2018-12-16T05:14:34.798Z,83.17
2018-12-16T05:17:03.149Z,84.03
2018-12-16T05:19:32.405Z,91.67
2018-12-16T05:22:00.706Z,76.87
2018-12-16T05:24:29.235Z,83.13
2018-12-16T05:26:57.539Z,90.20
2018-12-16T05:29:26.453Z,84.80
2018-12-16T05:31:54.723Z,82.53
2018-12-16T05:34:25.822Z,86.27
2018-12-16T05:36:54.243Z,87.10
2018-12-16T05:39:23.138Z,92.00
2018-12-16T05:41:51.359Z,85.53
2018-12-16T05:44:19.590Z,84.73
2018-12-16T05:46:48.688Z,87.17
2018-12-16T05:49:17.282Z,90.63
2018-12-16T05:51:45.542Z,85.73
2018-12-16T05:54:13.862Z,86.83
2018-12-16T05:56:42.172Z,92.77
2018-12-16T05:59:10.926Z,86.03
2018-12-16T06:01:39.208Z,89.00
2018-12-16T06:04:07.681Z,87.17
2018-12-16T06:06:35.991Z,94.37
2018-12-16T06:09:05.670Z,96.43
2018-12-16T06:11:35.399Z,75.80
2018-12-16T06:14:04.471Z,84.13
2018-12-16T06:16:33.362Z,95.90
2018-12-16T06:19:01.642Z,87.20
2018-12-16T06:21:29.996Z,89.27
2018-12-16T06:23:58.346Z,94.10
2018-12-16T06:26:26.861Z,90.63
2018-12-16T06:28:55.245Z,93.43
2018-12-16T06:31:23.519Z,90.97
2018-12-16T06:33:51.817Z,82.40
2018-12-16T06:36:21.050Z,93.07
2018-12-16T06:38:49.260Z,87.20
2018-12-16T06:41:17.578Z,90.90
2018-12-16T06:43:45.940Z,105.43
2018-12-16T06:46:14.187Z,96.30
2018-12-16T06:48:42.530Z,91.13
2018-12-16T06:51:10.897Z,99.03
2018-12-16T06:53:39.409Z,109.57
2018-12-16T06:56:08.948Z,101.17
2018-12-16T06:58:37.766Z,98.00
2018-12-16T07:01:06.029Z,103.63
2018-12-16T07:03:34.791Z,89.43
2018-12-16T07:06:04.089Z,100.67
2018-12-16T07:08:32.395Z,102.60
2018-12-16T07:11:00.903Z,98.17
2018-12-16T07:13:29.236Z,108.00
2018-12-16T07:15:57.568Z,111.70
2018-12-16T07:18:25.958Z,102.27
2018-12-16T07:20:54.519Z,101.47
2018-12-16T07:23:22.834Z,110.93
2018-12-16T07:25:51.285Z,108.73
2018-12-16T07:28:19.564Z,110.40
2018-12-16T07:30:48.008Z,119.60
2018-12-16T07:33:17.181Z,109.17
2018-12-16T07:35:45.732Z,114.13
2018-12-16T07:38:14.001Z,120.33
2018-12-16T07:40:42.319Z,136.40
2018-12-16T07:43:10.702Z,117.30
2018-12-16T07:45:39.016Z,112.17
2018-12-16T07:48:07.483Z,126.77
2018-12-16T07:50:35.932Z,129.23
2018-12-16T07:53:04.519Z,120.07
2018-12-16T07:55:32.858Z,134.40
2018-12-16T07:58:01.304Z,131.53
2018-12-16T08:00:30.329Z,126.30
2018-12-16T08:03:00.836Z,141.73
2018-12-16T08:05:29.361Z,136.77
2018-12-16T08:07:58.567Z,141.93
2018-12-16T08:10:27.295Z,127.40
2018-12-16T08:12:56.411Z,124.33
2018-12-16T08:15:24.697Z,135.77
2018-12-16T08:17:53.077Z,142.70
2018-12-16T08:20:21.374Z,129.53
2018-12-16T08:22:50.210Z,142.70
2018-12-16T08:25:18.452Z,141.00
2018-12-16T08:27:46.751Z,133.23
2018-12-16T08:30:15.578Z,137.37
2018-12-16T08:32:43.813Z,151.83
2018-12-16T08:35:12.952Z,142.30
2018-12-16T08:37:41.341Z,137.20
2018-12-16T08:40:10.342Z,133.30
2018-12-16T08:42:39.161Z,144.27
2018-12-16T08:45:08.441Z,150.13
2018-12-16T08:47:36.859Z,153.40
2018-12-16T08:50:06.294Z,146.37
2018-12-16T08:52:35.043Z,158.87
2018-12-16T08:55:03.879Z,141.83
2018-12-16T08:57:32.660Z,162.00
2018-12-16T09:00:00.940Z,153.63
2018-12-16T09:02:29.489Z,150.80
2018-12-16T09:04:57.742Z,152.33
2018-12-16T09:07:26.156Z,146.20
2018-12-16T09:09:55.083Z,159.13
2018-12-16T09:12:23.374Z,153.90
2018-12-16T09:14:52.524Z,156.27
2018-12-16T09:17:21.102Z,163.57
2018-12-16T09:19:49.331Z,144.90
2018-12-16T09:22:17.685Z,147.40
2018-12-16T09:24:46.003Z,148.87
2018-12-16T09:27:14.276Z,134.33
2018-12-16T09:29:42.634Z,151.63
2018-12-16T09:32:10.970Z,147.33
2018-12-16T09:34:45.945Z,154.13
2018-12-16T09:37:14.414Z,141.80
2018-12-16T09:39:46.075Z,148.77
2018-12-16T09:42:16.290Z,148.83
2018-12-16T09:44:57.497Z,156.13
2018-12-16T09:47:27.297Z,139.80
2018-12-16T09:49:59.580Z,142.70
2018-12-16T09:52:28.837Z,144.07
2018-12-16T09:54:59.196Z,147.67
2018-12-16T09:57:28.896Z,152.93
2018-12-16T09:59:57.467Z,142.23
2018-12-16T10:02:25.827Z,144.33
2018-12-16T10:04:55.428Z,141.00
2018-12-16T10:07:23.914Z,138.07
2018-12-16T10:09:57.438Z,146.23
2018-12-16T10:12:26.047Z,150.13
2018-12-16T10:14:54.736Z,142.70
2018-12-16T10:17:25.109Z,145.03
2018-12-16T10:19:53.535Z,145.53
2018-12-16T10:22:22.060Z,136.03
2018-12-16T10:24:51.405Z,149.30
2018-12-16T10:27:20.627Z,166.40
2018-12-16T10:29:50.085Z,157.30
2018-12-16T10:32:20.327Z,168.90
2018-12-16T10:34:49.007Z,173.23
2018-12-16T10:37:18.563Z,148.63
2018-12-16T10:39:47.597Z,173.30
2018-12-16T10:42:16.444Z,175.93
2018-12-16T10:44:44.756Z,178.70
2018-12-16T10:47:27.398Z,172.37
2018-12-16T10:49:56.706Z,169.87
2018-12-16T10:52:25.507Z,165.77
2018-12-16T10:54:58.400Z,164.20
2018-12-16T10:57:24.251Z,196.37
2018-12-16T10:59:52.657Z,166.93
2018-12-16T11:02:21.305Z,193.03
2018-12-16T11:04:49.866Z,177.90
2018-12-16T11:07:18.562Z,180.97
2018-12-16T11:09:47.072Z,234.27
2018-12-16T11:12:16.194Z,196.37
2018-12-16T11:14:44.616Z,245.47
2018-12-16T11:17:13.154Z,261.30
2018-12-16T11:19:41.500Z,194.27
2018-12-16T11:22:10.018Z,184.87
2018-12-16T11:24:38.232Z,193.57
2018-12-16T11:27:06.760Z,181.37
2018-12-16T11:29:35.071Z,201.93
2018-12-16T11:32:03.637Z,199.83
2018-12-16T11:34:32.306Z,192.13
2018-12-16T11:37:00.827Z,191.83
2018-12-16T11:39:29.517Z,198.73
2018-12-16T11:41:58.067Z,207.20
2018-12-16T11:44:27.325Z,170.00
2018-12-16T11:46:55.847Z,212.53
2018-12-16T11:49:25.451Z,201.13
2018-12-16T11:51:54.243Z,204.53
2018-12-16T11:54:22.707Z,178.30
2018-12-16T11:56:51.282Z,218.03
2018-12-16T11:59:20.026Z,214.47
2018-12-16T12:01:48.443Z,170.07
2018-12-16T12:04:16.834Z,280.53
2018-12-16T12:06:45.582Z,213.37
2018-12-16T12:09:13.929Z,193.47
2018-12-16T12:11:42.292Z,211.67
2018-12-16T12:14:10.747Z,195.97
2018-12-16T12:16:39.104Z,191.17
2018-12-16T12:19:07.475Z,193.53
2018-12-16T12:21:36.012Z,202.60
2018-12-16T12:24:04.390Z,195.40
2018-12-16T12:26:32.873Z,193.67
2018-12-16T12:29:01.315Z,307.13
2018-12-16T12:31:29.705Z,198.50
2018-12-16T12:33:58.010Z,344.10
2018-12-16T12:36:26.525Z,211.13
2018-12-16T12:38:54.899Z,221.07
2018-12-16T12:41:23.260Z,251.13
2018-12-16T12:43:51.727Z,203.33
2018-12-16T12:46:20.078Z,210.07
2018-12-16T12:48:48.823Z,230.97
2018-12-16T12:51:17.178Z,282.07
2018-12-16T12:53:45.692Z,222.77
2018-12-16T12:56:14.157Z,262.10
2018-12-16T12:58:42.504Z,217.90
2018-12-16T13:01:11.138Z,219.47
2018-12-16T13:03:39.513Z,195.43
2018-12-16T13:06:08.026Z,237.57
2018-12-16T13:08:36.485Z,204.97
2018-12-16T13:11:04.958Z,219.03
2018-12-16T13:13:33.613Z,234.90
2018-12-16T13:16:02.021Z,237.50
2018-12-16T13:18:30.456Z,224.13
2018-12-16T13:20:58.971Z,227.40
2018-12-16T13:23:27.420Z,218.10
2018-12-16T13:26:02.895Z,190.00
2018-12-16T13:28:31.459Z,210.70
2018-12-16T13:31:00.020Z,239.23
2018-12-16T13:33:28.646Z,230.87
2018-12-16T13:35:57.060Z,252.60
2018-12-16T13:38:25.482Z,219.63
2018-12-16T13:40:54.051Z,212.27
2018-12-16T13:43:22.566Z,220.50
2018-12-16T13:45:50.924Z,225.00
2018-12-16T13:48:19.332Z,291.47
2018-12-16T13:50:47.782Z,220.13
2018-12-16T13:53:16.127Z,205.17
2018-12-16T13:55:45.786Z,221.67
2018-12-16T13:58:14.326Z,241.43
2018-12-16T14:00:42.788Z,199.30
2018-12-16T14:03:12.319Z,218.53
2018-12-16T14:05:46.670Z,241.47
2018-12-16T14:08:12.490Z,206.33
2018-12-16T14:10:44.275Z,218.77
2018-12-16T14:13:13.429Z,210.57
2018-12-16T14:15:42.283Z,214.70
2018-12-16T14:18:11.758Z,201.83
2018-12-16T14:20:40.597Z,221.87
2018-12-16T14:23:10.137Z,189.97
2018-12-16T14:25:38.621Z,202.20
2018-12-16T14:28:07.120Z,223.43
2018-12-16T14:30:35.916Z,202.90
2018-12-16T14:33:04.422Z,221.40
2018-12-16T14:35:35.079Z,226.10
2018-12-16T14:38:04.128Z,192.57
2018-12-16T14:40:32.723Z,210.50
2018-12-16T14:43:01.501Z,200.30
2018-12-16T14:45:30.015Z,205.57
2018-12-16T14:47:58.542Z,200.63
2018-12-16T14:50:28.211Z,205.53
2018-12-16T14:52:56.720Z,216.87
2018-12-16T14:55:26.673Z,209.87
2018-12-16T14:57:55.424Z,221.90
2018-12-16T15:00:24.105Z,214.90
2018-12-16T15:02:53.546Z,223.57
2018-12-16T15:05:22.162Z,222.40
2018-12-16T15:07:50.778Z,227.03
2018-12-16T15:10:19.696Z,217.13
2018-12-16T15:12:48.105Z,227.83
2018-12-16T15:15:18.140Z,255.87
2018-12-16T15:17:46.535Z,287.20
2018-12-16T15:20:14.988Z,278.33
2018-12-16T15:22:43.359Z,248.20
2018-12-16T15:25:11.693Z,250.40
2018-12-16T15:27:40.271Z,280.37
2018-12-16T15:30:10.137Z,272.27
2018-12-16T15:32:40.967Z,412.07
2018-12-16T15:35:09.602Z,245.03
2018-12-16T15:37:37.993Z,256.33
2018-12-16T15:40:08.082Z,238.33
2018-12-16T15:42:36.442Z,264.87
2018-12-16T15:45:08.163Z,248.70
2018-12-16T15:47:47.341Z,244.30
2018-12-16T15:50:21.457Z,252.13
2018-12-16T15:52:49.994Z,221.73
2018-12-16T15:55:18.370Z,217.87
2018-12-16T15:57:46.876Z,215.40
2018-12-16T16:00:15.534Z,229.60
2018-12-16T16:02:43.877Z,226.37
2018-12-16T16:05:13.587Z,212.20
2018-12-16T16:07:42.090Z,198.63
2018-12-16T16:10:10.450Z,193.20
2018-12-16T16:12:39.068Z,206.70
2018-12-16T16:15:08.348Z,250.17
2018-12-16T16:17:39.138Z,209.53
2018-12-16T16:20:09.054Z,202.90
2018-12-16T16:22:37.354Z,192.13
2018-12-16T16:25:06.580Z,203.83
2018-12-16T16:27:34.987Z,182.03
2018-12-16T16:30:04.631Z,210.80
2018-12-16T16:32:33.003Z,197.47
2018-12-16T16:35:01.301Z,196.07
2018-12-16T16:37:29.629Z,191.47
2018-12-16T16:39:58.013Z,194.73
2018-12-16T16:42:26.260Z,180.77
2018-12-16T16:44:55.823Z,202.17
2018-12-16T16:47:24.442Z,226.90
2018-12-16T16:49:52.864Z,205.33
2018-12-16T16:52:21.385Z,193.80
2018-12-16T16:54:50.140Z,185.43
2018-12-16T16:57:18.719Z,192.30
2018-12-16T16:59:47.255Z,190.10
2018-12-16T17:02:18.300Z,202.37
2018-12-16T17:04:46.758Z,177.77
2018-12-16T17:07:15.125Z,176.83
2018-12-16T17:09:43.468Z,186.43
2018-12-16T17:12:11.880Z,202.93
2018-12-16T17:14:40.498Z,188.17
2018-12-16T17:17:08.862Z,185.80
2018-12-16T17:19:37.376Z,171.90
2018-12-16T17:22:06.044Z,188.43
2018-12-16T17:24:34.472Z,169.90
2018-12-16T17:27:02.933Z,179.47
2018-12-16T17:29:31.375Z,164.20
2018-12-16T17:31:59.785Z,178.23
2018-12-16T17:34:28.360Z,167.67
2018-12-16T17:36:58.988Z,177.13
2018-12-16T17:39:27.313Z,166.83
2018-12-16T17:41:55.671Z,157.93
2018-12-16T17:44:24.158Z,168.40
2018-12-16T17:46:52.891Z,154.67
2018-12-16T17:49:22.171Z,171.87
2018-12-16T17:51:50.958Z,151.70
2018-12-16T17:54:20.205Z,144.73
2018-12-16T17:56:49.030Z,136.23
2018-12-16T17:59:18.191Z,145.13
2018-12-16T18:01:50.192Z,149.00
2018-12-16T18:04:19.616Z,160.20
2018-12-16T18:06:48.986Z,156.87
2018-12-16T18:09:17.581Z,150.47
2018-12-16T18:11:45.876Z,150.73
2018-12-16T18:14:15.501Z,166.00
2018-12-16T18:16:44.129Z,140.23
2018-12-16T18:19:12.539Z,160.80
2018-12-16T18:21:40.805Z,161.67
2018-12-16T18:24:09.287Z,165.30
2018-12-16T18:26:43.791Z,149.77
2018-12-16T18:29:09.085Z,150.87
2018-12-16T18:31:37.504Z,154.23
2018-12-16T18:34:05.879Z,167.13
2018-12-16T18:36:34.483Z,145.97
2018-12-16T18:39:05.080Z,151.00
2018-12-16T18:41:47.377Z,152.60
2018-12-16T18:44:15.990Z,156.33
2018-12-16T18:46:44.678Z,147.23
2018-12-16T18:49:13.903Z,146.63
2018-12-16T18:51:44.020Z,150.93
2018-12-16T18:54:12.643Z,147.67
2018-12-16T18:56:41.640Z,157.23
2018-12-16T18:59:11.050Z,147.07
2018-12-16T19:01:40.210Z,141.70
2018-12-16T19:04:09.109Z,130.13
2018-12-16T19:06:37.664Z,138.70
2018-12-16T19:09:07.977Z,138.43
2018-12-16T19:11:36.791Z,139.23
2018-12-16T19:14:05.401Z,125.67
2018-12-16T19:16:34.833Z,141.70
2018-12-16T19:19:04.001Z,148.03
2018-12-16T19:21:32.706Z,142.40
2018-12-16T19:24:03.425Z,137.90
2018-12-16T19:26:32.605Z,145.80
2018-12-16T19:29:03.714Z,140.27
2018-12-16T19:31:32.390Z,161.43
2018-12-16T19:34:02.807Z,155.93
2018-12-16T19:36:31.468Z,152.50
2018-12-16T19:39:00.352Z,162.13
2018-12-16T19:41:29.223Z,172.77
2018-12-16T19:43:58.294Z,163.63
2018-12-16T19:46:27.481Z,151.73
2018-12-16T19:48:58.487Z,142.90
2018-12-16T19:51:29.417Z,148.10
2018-12-16T19:54:12.839Z,152.30
2018-12-16T19:56:42.433Z,154.70
2018-12-16T19:59:14.257Z,157.93
2018-12-16T20:01:43.902Z,161.00
2018-12-16T20:04:19.972Z,151.90
2018-12-16T20:06:48.766Z,160.90
2018-12-16T20:09:17.286Z,149.03
2018-12-16T20:11:48.291Z,164.43
2018-12-16T20:14:17.998Z,168.80
2018-12-16T20:19:27.069Z,185.07
2018-12-16T20:21:57.075Z,164.20
2018-12-16T20:24:28.185Z,142.40
2018-12-16T20:26:57.965Z,182.57
2018-12-16T20:29:26.627Z,154.57
2018-12-16T20:31:56.379Z,167.80
2018-12-16T20:34:26.860Z,161.27
2018-12-16T20:36:56.585Z,177.63
2018-12-16T20:39:26.066Z,178.87
2018-12-16T20:41:57.143Z,172.10
2018-12-16T20:44:27.699Z,156.13
2018-12-16T20:46:56.640Z,161.97
2018-12-16T20:49:27.871Z,159.97
2018-12-16T20:51:57.192Z,145.53
2018-12-16T20:54:26.494Z,151.57
2018-12-16T20:56:55.094Z,138.27
2018-12-16T20:59:25.194Z,116.03
2018-12-16T21:01:53.877Z,119.57
2018-12-16T21:04:22.413Z,125.07
2018-12-16T21:06:50.970Z,130.53
2018-12-16T21:09:19.645Z,123.23
2018-12-16T21:11:53.620Z,121.27
2018-12-16T21:17:19.635Z,125.60
2018-12-16T21:19:48.367Z,128.77
2018-12-16T21:22:16.799Z,114.00
2018-12-16T21:24:45.283Z,119.13
2018-12-16T21:27:14.265Z,114.10
2018-12-16T21:29:42.716Z,108.80
2018-12-16T21:32:11.155Z,136.30
2018-12-16T21:34:41.246Z,115.17
2018-12-16T21:37:09.733Z,125.30
2018-12-16T21:39:38.046Z,113.57
2018-12-16T21:42:09.989Z,117.40
2018-12-16T21:44:39.732Z,128.07
2018-12-16T21:47:08.089Z,144.77
2018-12-16T21:49:36.605Z,133.43
2018-12-16T21:52:06.283Z,140.37
2018-12-16T21:54:35.013Z,141.30
2018-12-16T21:57:04.529Z,148.97
2018-12-16T21:59:33.516Z,151.90
2018-12-16T22:02:02.905Z,163.20
2018-12-16T22:04:32.184Z,155.10
2018-12-16T22:07:00.974Z,142.43
2018-12-16T22:09:30.150Z,153.00
2018-12-16T22:11:58.993Z,147.97
2018-12-16T22:14:27.381Z,168.63
2018-12-16T22:16:56.459Z,175.97
2018-12-16T22:19:24.819Z,151.53
2018-12-16T22:21:53.629Z,174.00
2018-12-16T22:24:22.066Z,160.50
2018-12-16T22:26:50.584Z,150.37
2018-12-16T22:29:19.203Z,155.93
2018-12-16T22:31:48.448Z,144.63
2018-12-16T22:34:17.062Z,154.00
2018-12-16T22:36:45.742Z,138.80
2018-12-16T22:39:15.109Z,154.70
2018-12-16T22:41:43.610Z,152.07
2018-12-16T22:44:12.298Z,144.07
2018-12-16T22:49:19.922Z,138.17
2018-12-16T22:51:48.574Z,132.10
2018-12-16T22:54:17.251Z,126.43
2018-12-16T22:56:46.561Z,144.13
2018-12-16T22:59:14.921Z,152.57
2018-12-16T23:01:43.468Z,154.93
2018-12-16T23:04:11.849Z,152.47
2018-12-16T23:06:40.178Z,153.33
2018-12-16T23:09:09.044Z,136.50
2018-12-16T23:11:38.669Z,135.90
2018-12-16T23:14:07.403Z,133.63
2018-12-16T23:16:36.066Z,138.97
2018-12-16T23:19:04.529Z,145.87
2018-12-16T23:21:33.246Z,153.00
2018-12-16T23:24:01.838Z,154.77
2018-12-16T23:26:30.444Z,136.87
2018-12-16T23:28:58.945Z,138.97
2018-12-16T23:31:27.639Z,138.93
2018-12-16T23:33:56.025Z,141.13
2018-12-16T23:36:24.496Z,133.97
2018-12-16T23:38:53.200Z,140.37
2018-12-16T23:41:21.678Z,137.83
2018-12-16T23:43:50.917Z,133.10
2018-12-16T23:46:19.914Z,135.60
2018-12-16T23:48:48.355Z,124.70
2018-12-16T23:51:16.643Z,143.23
2018-12-16T23:53:45.174Z,136.30
2018-12-16T23:56:14.126Z,147.10
2018-12-16T23:58:42.694Z,140.23
